createdAt,value
2018-08-28T00:00:37.993Z,26.23
2018-08-28T00:01:38.000Z,26.25
2018-08-28T00:02:38.007Z,26.30
2018-08-28T00:03:38.015Z,26.17
2018-08-28T00:04:38.020Z,26.25
2018-08-28T00:05:38.028Z,26.18
2018-08-28T00:06:38.040Z,26.25
2018-08-28T00:07:38.041Z,26.23
2018-08-28T00:08:38.053Z,26.23
2018-08-28T00:09:38.055Z,26.23
2018-08-28T00:10:38.062Z,26.10
2018-08-28T00:11:38.071Z,26.13
2018-08-28T00:12:38.076Z,26.09
2018-08-28T00:13:38.083Z,26.15
2018-08-28T00:14:38.090Z,26.12
2018-08-28T00:15:38.095Z,26.02
2018-08-28T00:16:38.104Z,26.01
2018-08-28T00:17:38.111Z,26.06
2018-08-28T00:18:38.121Z,26.02
2018-08-28T00:19:38.125Z,25.95
2018-08-28T00:20:38.131Z,26.06
2018-08-28T00:21:38.137Z,25.92
2018-08-28T00:22:38.145Z,25.91
2018-08-28T00:23:38.150Z,25.92
2018-08-28T00:24:38.159Z,25.91
2018-08-28T00:25:38.164Z,25.91
2018-08-28T00:26:38.171Z,25.91
2018-08-28T00:27:38.177Z,25.87
2018-08-28T00:28:38.221Z,25.94
2018-08-28T00:29:38.191Z,25.97
2018-08-28T00:30:38.208Z,25.87
2018-08-28T00:31:38.205Z,25.88
2018-08-28T00:32:38.211Z,25.85
2018-08-28T00:33:38.218Z,25.88
2018-08-28T00:34:38.225Z,25.88
2018-08-28T00:35:38.232Z,25.88
2018-08-28T00:36:38.238Z,25.75
2018-08-28T00:37:38.245Z,25.85
2018-08-28T00:38:38.252Z,25.85
2018-08-28T00:39:38.258Z,25.77
2018-08-28T00:40:38.265Z,25.76
2018-08-28T00:41:38.272Z,25.79
2018-08-28T00:42:38.279Z,25.73
2018-08-28T00:43:38.286Z,25.77
2018-08-28T00:44:38.290Z,25.76
2018-08-28T00:45:38.298Z,25.80
2018-08-28T00:46:38.306Z,25.73
2018-08-28T00:47:38.330Z,25.73
2018-08-28T00:48:38.322Z,25.72
2018-08-28T00:49:38.326Z,25.69
2018-08-28T00:50:38.331Z,25.76
2018-08-28T00:51:38.337Z,25.69
2018-08-28T00:52:38.344Z,25.70
2018-08-28T00:53:38.352Z,25.69
2018-08-28T00:54:38.359Z,25.67
2018-08-28T00:55:38.363Z,25.61
2018-08-28T00:56:38.386Z,25.60
2018-08-28T00:57:38.377Z,25.58
2018-08-28T00:58:38.384Z,25.61
2018-08-28T00:59:38.391Z,25.64
2018-08-28T01:00:38.399Z,25.64
2018-08-28T01:01:38.403Z,25.72
2018-08-28T01:02:38.414Z,25.60
2018-08-28T01:03:38.416Z,25.72
2018-08-28T01:04:38.424Z,25.60
2018-08-28T01:05:38.433Z,25.64
2018-08-28T01:06:38.436Z,25.67
2018-08-28T01:07:38.443Z,25.73
2018-08-28T01:08:38.449Z,25.70
2018-08-28T01:09:38.455Z,25.69
2018-08-28T01:10:38.463Z,25.69
2018-08-28T01:11:38.468Z,25.73
2018-08-28T01:12:38.476Z,25.69
2018-08-28T01:13:38.484Z,25.75
2018-08-28T01:14:38.547Z,25.77
2018-08-28T01:15:38.495Z,25.75
2018-08-28T01:16:38.500Z,25.73
2018-08-28T01:17:38.508Z,25.76
2018-08-28T01:18:38.515Z,25.82
2018-08-28T01:19:38.521Z,25.83
2018-08-28T01:20:38.528Z,25.76
2018-08-28T01:21:38.536Z,25.76
2018-08-28T01:22:38.545Z,25.85
2018-08-28T01:23:38.550Z,25.80
2018-08-28T01:24:38.554Z,25.82
2018-08-28T01:25:38.561Z,25.91
2018-08-28T01:26:38.568Z,25.91
2018-08-28T01:27:38.576Z,25.88
2018-08-28T01:28:38.581Z,25.90
2018-08-28T01:29:38.588Z,25.95
2018-08-28T01:30:38.595Z,25.94
2018-08-28T01:31:38.600Z,25.92
2018-08-28T01:32:38.606Z,25.97
2018-08-28T01:33:38.614Z,25.91
2018-08-28T01:34:38.621Z,25.88
2018-08-28T01:35:38.628Z,25.92
2018-08-28T01:36:38.634Z,25.90
2018-08-28T01:37:38.647Z,25.90
2018-08-28T01:38:38.648Z,25.91
2018-08-28T01:39:38.658Z,25.91
2018-08-28T01:40:38.661Z,25.87
2018-08-28T01:41:38.667Z,25.97
2018-08-28T01:42:38.675Z,25.91
2018-08-28T01:43:38.680Z,25.97
2018-08-28T01:44:38.687Z,25.97
2018-08-28T01:45:38.695Z,25.98
2018-08-28T01:46:38.701Z,26.02
2018-08-28T01:47:38.710Z,25.97
2018-08-28T01:48:38.715Z,25.97
2018-08-28T01:49:38.721Z,26.05
2018-08-28T01:50:38.735Z,25.98
2018-08-28T01:51:38.735Z,25.99
2018-08-28T01:52:38.741Z,25.97
2018-08-28T01:53:38.748Z,26.01
2018-08-28T01:54:38.753Z,26.02
2018-08-28T01:55:38.761Z,26.01
2018-08-28T01:56:38.768Z,25.97
2018-08-28T01:57:38.775Z,25.94
2018-08-28T01:58:38.782Z,25.90
2018-08-28T01:59:38.788Z,25.91
2018-08-28T02:00:38.795Z,25.87
2018-08-28T02:01:38.802Z,25.91
2018-08-28T02:02:38.808Z,25.94
2018-08-28T02:03:38.815Z,25.95
2018-08-28T02:04:38.821Z,25.85
2018-08-28T02:05:38.830Z,25.85
2018-08-28T02:06:38.860Z,25.87
2018-08-28T02:07:38.841Z,25.91
2018-08-28T02:08:38.848Z,25.82
2018-08-28T02:09:38.855Z,25.85
2018-08-28T02:10:38.862Z,25.79
2018-08-28T02:11:38.868Z,25.76
2018-08-28T02:12:38.875Z,25.76
2018-08-28T02:13:38.884Z,25.72
2018-08-28T02:14:38.888Z,25.75
2018-08-28T02:15:38.896Z,25.77
2018-08-28T02:16:38.901Z,25.75
2018-08-28T02:17:38.908Z,25.67
2018-08-28T02:18:38.917Z,25.65
2018-08-28T02:19:38.921Z,25.70
2018-08-28T02:20:38.929Z,25.61
2018-08-28T02:21:38.938Z,25.61
2018-08-28T02:22:38.940Z,25.61
2018-08-28T02:23:38.946Z,25.61
2018-08-28T02:24:38.954Z,25.57
2018-08-28T02:25:38.961Z,25.64
2018-08-28T02:26:38.967Z,25.62
2018-08-28T02:27:38.970Z,25.58
2018-08-28T02:28:38.979Z,25.64
2018-08-28T02:29:38.986Z,25.52
2018-08-28T02:30:38.993Z,25.55
2018-08-28T02:31:38.996Z,25.50
2018-08-28T02:32:39.005Z,25.51
2018-08-28T02:33:39.092Z,25.46
2018-08-28T02:34:39.018Z,25.50
2018-08-28T02:35:39.027Z,25.50
2018-08-28T02:36:39.030Z,25.52
2018-08-28T02:37:39.038Z,25.47
2018-08-28T02:38:39.044Z,25.51
2018-08-28T02:39:39.049Z,25.45
2018-08-28T02:40:39.056Z,25.50
2018-08-28T02:41:39.063Z,25.45
2018-08-28T02:42:39.069Z,25.46
2018-08-28T02:43:39.078Z,25.50
2018-08-28T02:44:39.092Z,25.42
2018-08-28T02:45:39.089Z,25.40
2018-08-28T02:46:39.095Z,25.36
2018-08-28T02:47:39.100Z,25.40
2018-08-28T02:48:39.107Z,25.36
2018-08-28T02:49:39.113Z,25.38
2018-08-28T02:50:39.120Z,25.40
2018-08-28T02:51:39.126Z,25.36
2018-08-28T02:52:39.132Z,25.45
2018-08-28T02:53:39.139Z,25.43
2018-08-28T02:54:39.145Z,25.42
2018-08-28T02:55:39.150Z,25.39
2018-08-28T02:56:39.161Z,25.36
2018-08-28T02:57:39.164Z,25.39
2018-08-28T02:58:39.171Z,25.40
2018-08-28T02:59:39.183Z,25.47
2018-08-28T03:00:39.184Z,25.45
2018-08-28T03:01:39.189Z,25.50
2018-08-28T03:02:39.201Z,25.45
2018-08-28T03:03:39.206Z,25.54
2018-08-28T03:04:39.209Z,25.52
2018-08-28T03:05:39.215Z,25.52
2018-08-28T03:06:39.222Z,25.54
2018-08-28T03:07:39.229Z,25.51
2018-08-28T03:08:39.234Z,25.52
2018-08-28T03:09:39.241Z,25.57
2018-08-28T03:10:39.247Z,25.58
2018-08-28T03:11:39.398Z,25.58
2018-08-28T03:12:39.261Z,25.52
2018-08-28T03:13:39.272Z,25.58
2018-08-28T03:14:39.272Z,25.58
2018-08-28T03:15:39.395Z,25.57
2018-08-28T03:16:39.286Z,25.61
2018-08-28T03:17:39.293Z,25.60
2018-08-28T03:18:39.299Z,25.62
2018-08-28T03:19:39.304Z,25.58
2018-08-28T03:20:39.311Z,25.62
2018-08-28T03:21:39.318Z,25.62
2018-08-28T03:22:39.324Z,25.62
2018-08-28T03:23:39.330Z,25.72
2018-08-28T03:24:39.338Z,25.73
2018-08-28T03:25:39.344Z,25.60
2018-08-28T03:26:39.348Z,25.70
2018-08-28T03:27:39.357Z,25.70
2018-08-28T03:28:39.363Z,25.69
2018-08-28T03:29:39.370Z,25.72
2018-08-28T03:30:39.377Z,25.73
2018-08-28T03:31:39.380Z,25.79
2018-08-28T03:32:39.390Z,25.79
2018-08-28T03:33:39.396Z,25.76
2018-08-28T03:34:39.404Z,25.75
2018-08-28T03:35:39.408Z,25.79
2018-08-28T03:36:39.414Z,25.72
2018-08-28T03:37:39.422Z,25.76
2018-08-28T03:38:39.429Z,25.77
2018-08-28T03:39:39.439Z,25.76
2018-08-28T03:40:39.444Z,25.82
2018-08-28T03:41:39.449Z,25.80
2018-08-28T03:42:39.456Z,25.80
2018-08-28T03:43:39.462Z,25.77
2018-08-28T03:44:39.539Z,25.87
2018-08-28T03:45:39.475Z,25.85
2018-08-28T03:46:39.484Z,25.88
2018-08-28T03:47:39.487Z,25.91
2018-08-28T03:48:39.495Z,25.82
2018-08-28T03:49:39.501Z,25.85
2018-08-28T03:50:39.513Z,25.85
2018-08-28T03:51:39.512Z,25.91
2018-08-28T03:52:39.522Z,25.85
2018-08-28T03:53:39.543Z,25.87
2018-08-28T03:54:39.535Z,25.90
2018-08-28T03:55:39.540Z,25.92
2018-08-28T03:56:39.546Z,25.91
2018-08-28T03:57:39.555Z,25.88
2018-08-28T03:58:39.561Z,25.91
2018-08-28T03:59:39.575Z,25.95
2018-08-28T04:00:39.574Z,25.92
2018-08-28T04:01:39.581Z,25.91
2018-08-28T04:02:39.588Z,25.90
2018-08-28T04:03:39.608Z,25.88
2018-08-28T04:04:39.612Z,25.92
2018-08-28T04:05:39.607Z,25.92
2018-08-28T04:06:39.614Z,25.94
2018-08-28T04:07:39.621Z,25.92
2018-08-28T04:08:39.627Z,25.94
2018-08-28T04:09:39.637Z,25.91
2018-08-28T04:10:39.641Z,25.90
2018-08-28T04:11:39.649Z,25.92
2018-08-28T04:12:39.656Z,25.92
2018-08-28T04:13:39.661Z,25.97
2018-08-28T04:14:39.668Z,25.94
2018-08-28T04:15:39.672Z,25.95
2018-08-28T04:16:39.681Z,25.97
2018-08-28T04:17:39.689Z,25.91
2018-08-28T04:18:39.695Z,25.91
2018-08-28T04:19:39.703Z,25.91
2018-08-28T04:20:39.708Z,25.97
2018-08-28T04:21:39.715Z,25.97
2018-08-28T04:22:39.818Z,25.95
2018-08-28T04:23:39.734Z,25.92
2018-08-28T04:24:39.742Z,25.98
2018-08-28T04:25:39.743Z,25.90
2018-08-28T04:26:39.748Z,25.90
2018-08-28T04:27:39.755Z,25.94
2018-08-28T04:28:39.762Z,25.92
2018-08-28T04:29:39.768Z,25.91
2018-08-28T04:30:39.951Z,25.94
2018-08-28T04:31:39.781Z,25.90
2018-08-28T04:32:39.788Z,25.90
2018-08-28T04:33:39.795Z,25.91
2018-08-28T04:34:39.804Z,25.90
2018-08-28T04:35:39.811Z,25.87
2018-08-28T04:36:39.814Z,25.82
2018-08-28T04:37:39.822Z,25.82
2018-08-28T04:38:39.829Z,25.82
2018-08-28T04:39:39.835Z,25.77
2018-08-28T04:40:39.841Z,25.82
2018-08-28T04:41:39.898Z,25.76
2018-08-28T04:42:39.856Z,25.82
2018-08-28T04:43:39.861Z,25.82
2018-08-28T04:44:39.868Z,25.79
2018-08-28T04:45:39.878Z,25.75
2018-08-28T04:46:39.881Z,25.79
2018-08-28T04:47:39.887Z,25.79
2018-08-28T04:48:39.931Z,25.77
2018-08-28T04:49:39.906Z,25.73
2018-08-28T04:50:39.910Z,25.69
2018-08-28T04:51:39.913Z,25.73
2018-08-28T04:52:39.922Z,25.77
2018-08-28T04:53:39.927Z,25.72
2018-08-28T04:54:39.947Z,25.79
2018-08-28T04:55:39.940Z,25.70
2018-08-28T04:56:39.946Z,25.70
2018-08-28T04:57:39.955Z,25.70
2018-08-28T04:58:39.960Z,25.67
2018-08-28T04:59:39.966Z,25.65
2018-08-28T05:00:39.981Z,25.62
2018-08-28T05:01:39.979Z,25.65
2018-08-28T05:02:39.986Z,25.65
2018-08-28T05:03:39.993Z,25.62
2018-08-28T05:04:40.002Z,25.60
2018-08-28T05:05:40.006Z,25.58
2018-08-28T05:06:40.012Z,25.55
2018-08-28T05:07:40.023Z,25.51
2018-08-28T05:08:40.024Z,25.54
2018-08-28T05:09:40.031Z,25.47
2018-08-28T05:10:40.037Z,25.47
2018-08-28T05:11:40.054Z,25.57
2018-08-28T05:12:40.053Z,25.55
2018-08-28T05:13:40.056Z,25.51
2018-08-28T05:14:40.064Z,25.52
2018-08-28T05:15:40.069Z,25.54
2018-08-28T05:16:40.108Z,25.46
2018-08-28T05:17:40.079Z,25.46
2018-08-28T05:18:40.089Z,25.51
2018-08-28T05:19:40.095Z,25.51
2018-08-28T05:20:40.101Z,25.50
2018-08-28T05:21:40.107Z,25.51
2018-08-28T05:22:40.116Z,25.58
2018-08-28T05:23:40.123Z,25.57
2018-08-28T05:24:40.128Z,25.52
2018-08-28T05:25:40.133Z,25.50
2018-08-28T05:26:40.141Z,25.54
2018-08-28T05:27:40.146Z,25.45
2018-08-28T05:28:40.154Z,25.46
2018-08-28T05:29:40.172Z,25.52
2018-08-28T05:30:40.168Z,25.54
2018-08-28T05:31:40.171Z,25.50
2018-08-28T05:32:40.179Z,25.60
2018-08-28T05:33:40.185Z,25.51
2018-08-28T05:34:40.192Z,25.57
2018-08-28T05:35:40.199Z,25.61
2018-08-28T05:36:40.203Z,25.54
2018-08-28T05:37:40.212Z,25.60
2018-08-28T05:38:40.218Z,25.64
2018-08-28T05:39:40.224Z,25.60
2018-08-28T05:40:40.229Z,25.62
2018-08-28T05:41:40.239Z,25.61
2018-08-28T05:42:40.243Z,25.62
2018-08-28T05:43:40.252Z,25.61
2018-08-28T05:44:40.255Z,25.61
2018-08-28T05:45:40.263Z,25.70
2018-08-28T05:46:40.268Z,25.77
2018-08-28T05:47:40.284Z,25.69
2018-08-28T05:48:40.281Z,25.69
2018-08-28T05:49:40.410Z,25.72
2018-08-28T05:50:40.295Z,25.70
2018-08-28T05:51:40.302Z,25.70
2018-08-28T05:52:40.315Z,25.73
2018-08-28T05:53:40.314Z,25.69
2018-08-28T05:54:40.322Z,25.57
2018-08-28T05:55:40.355Z,25.60
2018-08-28T05:56:40.335Z,25.62
2018-08-28T05:57:40.341Z,25.62
2018-08-28T05:58:40.347Z,25.60
2018-08-28T05:59:40.354Z,25.57
2018-08-28T06:00:40.360Z,25.60
2018-08-28T06:01:40.363Z,25.51
2018-08-28T06:02:40.373Z,25.47
2018-08-28T06:03:40.384Z,25.58
2018-08-28T06:04:40.385Z,25.55
2018-08-28T06:05:40.392Z,25.50
2018-08-28T06:06:40.398Z,25.61
2018-08-28T06:07:40.408Z,25.60
2018-08-28T06:08:40.470Z,25.46
2018-08-28T06:09:40.421Z,25.55
2018-08-28T06:10:40.425Z,25.58
2018-08-28T06:11:40.426Z,25.60
2018-08-28T06:12:40.437Z,25.54
2018-08-28T06:13:40.443Z,25.60
2018-08-28T06:14:40.462Z,25.55
2018-08-28T06:15:40.459Z,25.52
2018-08-28T06:16:40.461Z,25.54
2018-08-28T06:17:40.469Z,25.58
2018-08-28T06:18:40.476Z,25.58
2018-08-28T06:19:40.481Z,25.52
2018-08-28T06:20:40.489Z,25.58
2018-08-28T06:21:40.494Z,25.54
2018-08-28T06:22:40.502Z,25.50
2018-08-28T06:23:40.507Z,25.51
2018-08-28T06:24:40.516Z,25.54
2018-08-28T06:25:40.528Z,25.54
2018-08-28T06:26:40.528Z,25.52
2018-08-28T06:27:40.538Z,25.47
2018-08-28T06:28:40.541Z,25.46
2018-08-28T06:29:40.547Z,25.47
2018-08-28T06:30:40.557Z,25.46
2018-08-28T06:31:40.559Z,25.46
2018-08-28T06:32:40.566Z,25.47
2018-08-28T06:33:40.579Z,25.45
2018-08-28T06:34:40.578Z,25.46
2018-08-28T06:35:40.584Z,25.46
2018-08-28T06:36:40.595Z,25.40
2018-08-28T06:37:40.598Z,25.40
2018-08-28T06:38:40.616Z,25.45
2018-08-28T06:39:40.616Z,25.43
2018-08-28T06:40:40.636Z,25.50
2018-08-28T06:41:40.627Z,25.46
2018-08-28T06:42:40.635Z,25.51
2018-08-28T06:43:40.650Z,25.51
2018-08-28T06:44:40.645Z,25.55
2018-08-28T06:45:40.658Z,25.55
2018-08-28T06:46:40.657Z,25.50
2018-08-28T06:47:40.661Z,25.54
2018-08-28T06:48:40.675Z,25.55
2018-08-28T06:49:40.781Z,25.46
2018-08-28T06:50:40.681Z,25.52
2018-08-28T06:51:40.710Z,25.50
2018-08-28T06:52:40.697Z,25.50
2018-08-28T06:53:40.700Z,25.54
2018-08-28T06:54:40.721Z,25.58
2018-08-28T06:55:40.715Z,25.62
2018-08-28T06:56:40.727Z,25.60
2018-08-28T06:57:40.741Z,25.64
2018-08-28T06:58:40.733Z,25.62
2018-08-28T06:59:40.738Z,25.67
2018-08-28T07:00:40.748Z,25.55
2018-08-28T07:01:40.766Z,25.75
2018-08-28T07:02:40.765Z,25.70
2018-08-28T07:03:40.770Z,25.67
2018-08-28T07:04:40.774Z,25.67
2018-08-28T07:05:40.778Z,25.70
2018-08-28T07:06:40.786Z,25.70
2018-08-28T07:07:40.791Z,25.64
2018-08-28T07:08:40.797Z,25.67
2018-08-28T07:09:40.804Z,25.73
2018-08-28T07:10:40.812Z,25.65
2018-08-28T07:11:40.817Z,25.73
2018-08-28T07:12:40.824Z,25.70
2018-08-28T07:13:40.830Z,25.64
2018-08-28T07:14:40.838Z,25.73
2018-08-28T07:15:40.847Z,25.70
2018-08-28T07:16:40.856Z,25.72
2018-08-28T07:17:40.856Z,25.73
2018-08-28T07:18:40.869Z,25.65
2018-08-28T07:19:40.871Z,25.61
2018-08-28T07:20:40.876Z,25.60
2018-08-28T07:21:40.882Z,25.72
2018-08-28T07:22:40.890Z,25.64
2018-08-28T07:23:40.895Z,25.61
2018-08-28T07:24:40.901Z,25.64
2018-08-28T07:25:40.985Z,25.60
2018-08-28T07:26:40.918Z,25.62
2018-08-28T07:27:40.923Z,25.58
2018-08-28T07:28:40.928Z,25.52
2018-08-28T07:29:40.938Z,25.60
2018-08-28T07:30:40.942Z,25.64
2018-08-28T07:31:41.009Z,25.65
2018-08-28T07:32:40.955Z,25.62
2018-08-28T07:33:40.962Z,25.54
2018-08-28T07:34:40.969Z,25.64
2018-08-28T07:35:40.973Z,25.64
2018-08-28T07:36:40.980Z,25.58
2018-08-28T07:37:40.986Z,25.60
2018-08-28T07:38:40.994Z,25.58
2018-08-28T07:39:41.003Z,25.64
2018-08-28T07:40:41.007Z,25.64
2018-08-28T07:41:41.013Z,25.61
2018-08-28T07:42:41.059Z,25.61
2018-08-28T07:43:41.026Z,25.65
2018-08-28T07:44:41.035Z,25.64
2018-08-28T07:45:41.042Z,25.67
2018-08-28T07:46:41.047Z,25.64
2018-08-28T07:47:41.051Z,25.60
2018-08-28T07:48:41.060Z,25.64
2018-08-28T07:49:41.066Z,25.65
2018-08-28T07:50:41.075Z,25.61
2018-08-28T07:51:41.084Z,25.67
2018-08-28T07:52:41.085Z,25.62
2018-08-28T07:53:41.100Z,25.67
2018-08-28T07:54:41.100Z,25.62
2018-08-28T07:55:41.104Z,25.62
2018-08-28T07:56:41.109Z,25.64
2018-08-28T07:57:41.122Z,25.64
2018-08-28T07:58:41.125Z,25.62
2018-08-28T07:59:41.130Z,25.58
2018-08-28T08:00:41.138Z,25.69
2018-08-28T08:01:41.144Z,25.60
2018-08-28T08:02:41.154Z,25.57
2018-08-28T08:03:41.157Z,25.61
2018-08-28T08:04:41.163Z,25.62
2018-08-28T08:05:41.170Z,25.58
2018-08-28T08:06:41.177Z,25.58
2018-08-28T08:07:41.223Z,25.67
2018-08-28T08:08:41.193Z,25.61
2018-08-28T08:09:41.197Z,25.69
2018-08-28T08:10:41.203Z,25.61
2018-08-28T08:11:41.208Z,25.67
2018-08-28T08:12:41.225Z,25.70
2018-08-28T08:13:41.223Z,25.72
2018-08-28T08:14:41.231Z,25.73
2018-08-28T08:15:41.360Z,25.75
2018-08-28T08:16:41.270Z,25.73
2018-08-28T08:17:41.249Z,25.70
2018-08-28T08:18:41.256Z,25.83
2018-08-28T08:19:41.263Z,25.76
2018-08-28T08:20:41.274Z,25.76
2018-08-28T08:21:41.275Z,25.77
2018-08-28T08:22:41.282Z,25.83
2018-08-28T08:23:41.288Z,25.82
2018-08-28T08:24:41.295Z,25.79
2018-08-28T08:25:41.302Z,25.80
2018-08-28T08:26:41.309Z,25.90
2018-08-28T08:27:41.354Z,25.87
2018-08-28T08:28:41.322Z,25.87
2018-08-28T08:29:41.328Z,25.87
2018-08-28T08:30:41.338Z,25.85
2018-08-28T08:31:41.341Z,25.91
2018-08-28T08:32:41.348Z,25.90
2018-08-28T08:33:41.356Z,25.91
2018-08-28T08:34:41.396Z,25.91
2018-08-28T08:35:41.368Z,25.92
2018-08-28T08:36:41.373Z,25.94
2018-08-28T08:37:41.383Z,25.87
2018-08-28T08:38:41.391Z,25.91
2018-08-28T08:39:41.398Z,25.94
2018-08-28T08:40:41.402Z,25.88
2018-08-28T08:41:41.409Z,25.94
2018-08-28T08:42:41.416Z,25.90
2018-08-28T08:43:41.426Z,25.94
2018-08-28T08:44:41.428Z,25.95
2018-08-28T08:45:41.436Z,25.91
2018-08-28T08:46:41.448Z,25.91
2018-08-28T08:47:41.450Z,25.97
2018-08-28T08:48:41.456Z,26.01
2018-08-28T08:49:41.464Z,26.01
2018-08-28T08:50:41.470Z,25.99
2018-08-28T08:51:41.476Z,25.99
2018-08-28T08:52:41.484Z,25.97
2018-08-28T08:53:41.492Z,26.07
2018-08-28T08:54:41.538Z,26.13
2018-08-28T08:55:41.503Z,26.05
2018-08-28T08:56:41.511Z,26.10
2018-08-28T08:57:41.519Z,26.09
2018-08-28T08:58:41.526Z,26.12
2018-08-28T08:59:41.531Z,26.09
2018-08-28T09:00:41.538Z,26.13
2018-08-28T09:01:41.554Z,26.13
2018-08-28T09:02:41.552Z,26.09
2018-08-28T09:03:41.560Z,26.13
2018-08-28T09:04:41.569Z,26.17
2018-08-28T09:05:41.573Z,26.13
2018-08-28T09:06:41.580Z,26.06
2018-08-28T09:07:41.587Z,26.12
2018-08-28T09:08:41.592Z,26.09
2018-08-28T09:09:41.604Z,26.13
2018-08-28T09:10:41.609Z,26.23
2018-08-28T09:11:41.617Z,26.20
2018-08-28T09:12:41.625Z,26.23
2018-08-28T09:13:41.628Z,26.25
2018-08-28T09:14:41.635Z,26.20
2018-08-28T09:15:41.641Z,26.23
2018-08-28T09:16:41.660Z,26.23
2018-08-28T09:17:41.661Z,26.20
2018-08-28T09:18:41.679Z,26.18
2018-08-28T09:19:41.671Z,26.18
2018-08-28T09:20:41.679Z,26.25
2018-08-28T09:21:41.682Z,26.26
2018-08-28T09:22:41.699Z,26.21
2018-08-28T09:23:41.700Z,26.26
2018-08-28T09:24:41.717Z,26.18
2018-08-28T09:25:41.716Z,26.20
2018-08-28T09:26:41.718Z,26.33
2018-08-28T09:27:41.725Z,26.28
2018-08-28T09:28:41.733Z,26.29
2018-08-28T09:29:41.739Z,26.29
2018-08-28T09:30:41.746Z,26.29
2018-08-28T09:31:41.792Z,26.39
2018-08-28T09:32:41.759Z,26.29
2018-08-28T09:33:41.769Z,26.37
2018-08-28T09:34:41.777Z,26.36
2018-08-28T09:35:41.781Z,26.40
2018-08-28T09:36:41.821Z,26.36
2018-08-28T09:37:41.795Z,26.37
2018-08-28T09:38:41.900Z,26.44
2018-08-28T09:39:41.808Z,26.45
2018-08-28T09:40:41.815Z,26.45
2018-08-28T09:41:41.822Z,26.45
2018-08-28T09:42:41.827Z,26.43
2018-08-28T09:43:41.885Z,26.44
2018-08-28T09:44:41.846Z,26.43
2018-08-28T09:45:41.851Z,26.40
2018-08-28T09:46:41.866Z,26.47
2018-08-28T09:47:41.889Z,26.45
2018-08-28T09:48:41.873Z,26.37
2018-08-28T09:49:41.876Z,26.51
2018-08-28T09:50:41.993Z,26.48
2018-08-28T09:51:41.893Z,26.47
2018-08-28T09:52:41.899Z,26.45
2018-08-28T09:53:41.906Z,26.43
2018-08-28T09:54:41.916Z,26.48
2018-08-28T09:55:41.921Z,26.44
2018-08-28T09:56:41.932Z,26.48
2018-08-28T09:57:41.938Z,26.51
2018-08-28T09:58:41.942Z,26.47
2018-08-28T09:59:41.950Z,26.43
2018-08-28T10:00:41.957Z,26.47
2018-08-28T10:01:41.965Z,26.40
2018-08-28T10:02:41.975Z,26.51
2018-08-28T10:03:41.979Z,26.50
2018-08-28T10:04:42.045Z,26.51
2018-08-28T10:05:41.995Z,26.45
2018-08-28T10:06:42.000Z,26.51
2018-08-28T10:07:42.058Z,26.50
2018-08-28T10:08:42.014Z,26.51
2018-08-28T10:09:42.022Z,26.55
2018-08-28T10:10:42.029Z,26.47
2018-08-28T10:11:42.037Z,26.55
2018-08-28T10:12:42.042Z,26.55
2018-08-28T10:13:42.050Z,26.52
2018-08-28T10:14:42.060Z,26.51
2018-08-28T10:15:42.064Z,26.52
2018-08-28T10:16:42.069Z,26.55
2018-08-28T10:17:42.077Z,26.54
2018-08-28T10:18:42.085Z,26.54
2018-08-28T10:19:42.093Z,26.58
2018-08-28T10:20:42.099Z,26.57
2018-08-28T10:21:42.107Z,26.62
2018-08-28T10:22:42.117Z,26.55
2018-08-28T10:23:42.125Z,26.55
2018-08-28T10:24:42.129Z,26.57
2018-08-28T10:25:42.135Z,26.50
2018-08-28T10:26:42.141Z,26.65
2018-08-28T10:27:42.149Z,26.58
2018-08-28T10:28:42.159Z,26.63
2018-08-28T10:29:42.182Z,26.65
2018-08-28T10:30:42.172Z,26.65
2018-08-28T10:31:42.179Z,26.62
2018-08-28T10:32:42.185Z,26.65
2018-08-28T10:33:42.192Z,26.70
2018-08-28T10:34:42.201Z,26.65
2018-08-28T10:35:42.210Z,26.65
2018-08-28T10:36:42.213Z,26.73
2018-08-28T10:37:42.223Z,26.65
2018-08-28T10:38:42.228Z,26.69
2018-08-28T10:39:42.236Z,26.63
2018-08-28T10:40:42.242Z,26.69
2018-08-28T10:41:42.250Z,26.66
2018-08-28T10:42:42.257Z,26.63
2018-08-28T10:43:42.264Z,26.65
2018-08-28T10:44:42.272Z,26.58
2018-08-28T10:45:42.278Z,26.62
2018-08-28T10:46:42.568Z,26.63
2018-08-28T10:47:42.292Z,26.65
2018-08-28T10:48:42.299Z,26.66
2018-08-28T10:49:42.306Z,26.60
2018-08-28T10:50:42.314Z,26.63
2018-08-28T10:51:42.321Z,26.65
2018-08-28T10:52:42.336Z,26.70
2018-08-28T10:53:42.335Z,26.52
2018-08-28T10:54:42.342Z,26.65
2018-08-28T10:55:42.349Z,26.57
2018-08-28T10:56:42.359Z,26.57
2018-08-28T10:57:42.365Z,26.52
2018-08-28T10:58:42.382Z,26.55
2018-08-28T10:59:42.377Z,26.55
2018-08-28T11:00:42.385Z,26.55
2018-08-28T11:01:42.392Z,26.55
2018-08-28T11:02:42.400Z,26.55
2018-08-28T11:03:42.405Z,26.54
2018-08-28T11:04:42.485Z,26.48
2018-08-28T11:05:42.420Z,26.62
2018-08-28T11:06:42.429Z,26.54
2018-08-28T11:07:42.442Z,26.55
2018-08-28T11:08:42.489Z,26.54
2018-08-28T11:09:42.448Z,26.62
2018-08-28T11:10:42.462Z,26.45
2018-08-28T11:11:42.464Z,26.57
2018-08-28T11:12:42.469Z,26.52
2018-08-28T11:13:42.477Z,26.60
2018-08-28T11:14:42.482Z,26.60
2018-08-28T11:15:42.489Z,26.60
2018-08-28T11:16:42.498Z,26.58
2018-08-28T11:17:42.505Z,26.62
2018-08-28T11:18:42.511Z,26.72
2018-08-28T11:19:42.518Z,26.63
2018-08-28T11:20:42.535Z,26.69
2018-08-28T11:21:42.531Z,26.67
2018-08-28T11:22:42.541Z,26.73
2018-08-28T11:23:42.546Z,26.73
2018-08-28T11:24:42.562Z,26.75
2018-08-28T11:25:42.563Z,26.76
2018-08-28T11:26:42.576Z,26.76
2018-08-28T11:27:42.581Z,26.76
2018-08-28T11:28:42.583Z,26.76
2018-08-28T11:29:42.591Z,26.80
2018-08-28T11:30:42.596Z,26.88
2018-08-28T11:31:42.603Z,26.85
2018-08-28T11:32:42.614Z,26.76
2018-08-28T11:33:42.619Z,26.89
2018-08-28T11:34:42.629Z,26.81
2018-08-28T11:35:42.672Z,26.89
2018-08-28T11:36:42.649Z,26.73
2018-08-28T11:37:42.648Z,26.82
2018-08-28T11:38:42.657Z,26.80
2018-08-28T11:39:42.661Z,26.82
2018-08-28T11:40:42.688Z,26.84
2018-08-28T11:41:42.678Z,26.67
2018-08-28T11:42:42.687Z,26.80
2018-08-28T11:43:42.693Z,26.69
2018-08-28T11:44:42.696Z,26.72
2018-08-28T11:45:42.706Z,26.75
2018-08-28T11:46:42.714Z,26.72
2018-08-28T11:47:42.719Z,26.72
2018-08-28T11:48:42.726Z,26.70
2018-08-28T11:49:42.734Z,26.70
2018-08-28T11:50:42.743Z,26.66
2018-08-28T11:51:42.769Z,26.73
2018-08-28T11:52:42.787Z,26.67
2018-08-28T11:53:42.763Z,26.76
2018-08-28T11:54:42.769Z,26.72
2018-08-28T11:55:42.777Z,26.73
2018-08-28T11:56:42.789Z,26.76
2018-08-28T11:57:42.792Z,26.72
2018-08-28T11:58:42.799Z,26.67
2018-08-28T11:59:42.816Z,26.70
2018-08-28T12:00:42.813Z,26.76
2018-08-28T12:01:42.824Z,26.69
2018-08-28T12:02:42.828Z,26.75
2018-08-28T12:03:42.840Z,26.67
2018-08-28T12:04:42.843Z,26.77
2018-08-28T12:05:42.851Z,26.81
2018-08-28T12:06:42.916Z,26.85
2018-08-28T12:07:42.928Z,26.82
2018-08-28T12:08:42.870Z,26.82
2018-08-28T12:09:42.877Z,26.87
2018-08-28T12:10:42.885Z,26.77
2018-08-28T12:11:42.892Z,26.92
2018-08-28T12:12:42.899Z,26.92
2018-08-28T12:13:42.907Z,26.97
2018-08-28T12:14:42.915Z,26.94
2018-08-28T12:15:42.921Z,26.95
2018-08-28T12:16:42.928Z,26.99
2018-08-28T12:17:42.937Z,27.00
2018-08-28T12:18:42.943Z,27.03
2018-08-28T12:19:42.953Z,27.09
2018-08-28T12:20:42.965Z,27.03
2018-08-28T12:21:42.966Z,27.09
2018-08-28T12:22:42.973Z,27.13
2018-08-28T12:23:42.989Z,27.12
2018-08-28T12:24:42.988Z,27.12
2018-08-28T12:25:42.994Z,27.13
2018-08-28T12:26:43.168Z,27.07
2018-08-28T12:27:43.009Z,27.13
2018-08-28T12:28:43.022Z,27.19
2018-08-28T12:29:43.200Z,27.25
2018-08-28T12:30:43.031Z,27.18
2018-08-28T12:31:43.038Z,27.19
2018-08-28T12:32:43.050Z,27.28
2018-08-28T12:33:43.054Z,27.22
2018-08-28T12:34:43.067Z,27.19
2018-08-28T12:35:43.080Z,27.29
2018-08-28T12:36:43.162Z,27.32
2018-08-28T12:37:43.085Z,27.34
2018-08-28T12:38:43.090Z,27.29
2018-08-28T12:39:43.098Z,27.32
2018-08-28T12:40:43.105Z,27.39
2018-08-28T12:41:43.113Z,27.40
2018-08-28T12:42:43.121Z,27.29
2018-08-28T12:43:43.128Z,27.34
2018-08-28T12:44:43.189Z,27.49
2018-08-28T12:45:43.159Z,27.37
2018-08-28T12:46:43.151Z,27.47
2018-08-28T12:47:43.160Z,27.39
2018-08-28T12:48:43.164Z,27.46
2018-08-28T12:49:43.173Z,27.40
2018-08-28T12:50:43.183Z,27.51
2018-08-28T12:51:43.191Z,27.55
2018-08-28T12:52:43.197Z,27.57